createdAt,value
2018-07-08T00:00:38.884Z,53.09
2018-07-08T00:03:10.313Z,53.38
2018-07-08T00:05:41.133Z,54.09
2018-07-08T00:08:12.218Z,53.93
2018-07-08T00:10:50.155Z,54.02
2018-07-08T00:13:21.519Z,53.05
2018-07-08T00:15:52.526Z,53.82
2018-07-08T00:18:25.061Z,53.80
2018-07-08T00:20:56.786Z,53.89
2018-07-08T00:23:27.875Z,54.95
2018-07-08T00:25:58.946Z,54.31
2018-07-08T00:28:30.009Z,54.05
2018-07-08T00:31:01.432Z,53.81
2018-07-08T00:33:32.993Z,54.16
2018-07-08T00:36:04.126Z,55.35
2018-07-08T00:38:35.527Z,55.66
2018-07-08T00:41:06.737Z,55.96
2018-07-08T00:43:37.679Z,56.15
2018-07-08T00:46:08.388Z,56.15
2018-07-08T00:48:39.420Z,56.93
2018-07-08T00:51:10.802Z,56.87
2018-07-08T00:53:41.829Z,57.51
2018-07-08T00:56:12.845Z,56.45
2018-07-08T00:58:43.926Z,57.50
2018-07-08T01:01:15.175Z,57.56
2018-07-08T01:03:46.173Z,56.61
2018-07-08T01:06:17.257Z,56.68
2018-07-08T01:08:48.677Z,57.76
2018-07-08T01:11:19.539Z,58.33
2018-07-08T01:13:50.343Z,57.47
2018-07-08T01:16:21.351Z,57.95
2018-07-08T01:18:52.428Z,58.26
2018-07-08T01:21:23.227Z,58.61
2018-07-08T01:23:54.200Z,59.36
2018-07-08T01:26:25.857Z,59.19
2018-07-08T01:28:56.993Z,59.11
2018-07-08T01:31:28.046Z,59.31
2018-07-08T01:33:59.578Z,59.79
2018-07-08T01:36:30.967Z,60.44
2018-07-08T01:39:01.727Z,60.60
2018-07-08T01:41:32.730Z,60.13
2018-07-08T01:44:04.002Z,60.87
2018-07-08T01:46:34.990Z,60.52
2018-07-08T01:49:06.369Z,60.26
2018-07-08T01:51:37.370Z,59.93
2018-07-08T01:54:08.122Z,59.93
2018-07-08T01:56:38.859Z,59.45
2018-07-08T01:59:10.106Z,59.36
2018-07-08T02:01:41.298Z,59.77
2018-07-08T02:04:12.981Z,60.11
2018-07-08T02:06:43.762Z,60.84
2018-07-08T02:09:14.277Z,60.27
2018-07-08T02:11:45.436Z,60.72
2018-07-08T02:14:16.221Z,61.04
2018-07-08T02:16:47.043Z,60.81
2018-07-08T02:19:18.138Z,61.07
2018-07-08T02:21:49.410Z,60.67
2018-07-08T02:24:20.752Z,60.51
2018-07-08T02:26:51.764Z,60.22
2018-07-08T02:29:22.915Z,60.84
2018-07-08T02:31:53.966Z,60.11
2018-07-08T02:34:25.510Z,60.13
2018-07-08T02:36:56.566Z,60.55
2018-07-08T02:39:28.068Z,60.57
2018-07-08T02:41:58.811Z,60.20
2018-07-08T02:44:30.082Z,60.71
2018-07-08T02:47:01.862Z,60.05
2018-07-08T02:49:33.106Z,60.60
2018-07-08T02:52:04.079Z,60.33
2018-07-08T02:54:35.074Z,60.50
2018-07-08T02:57:06.118Z,60.48
2018-07-08T02:59:37.364Z,60.88
2018-07-08T03:02:09.134Z,60.69
2018-07-08T03:04:40.145Z,60.99
2018-07-08T03:07:11.162Z,61.28
2018-07-08T03:09:42.316Z,61.74
2018-07-08T03:12:13.315Z,62.16
2018-07-08T03:14:44.339Z,62.45
2018-07-08T03:17:15.347Z,62.04
2018-07-08T03:19:46.371Z,62.08
2018-07-08T03:22:17.558Z,61.95
2018-07-08T03:24:48.251Z,62.49
2018-07-08T03:27:19.280Z,62.74
2018-07-08T03:29:50.332Z,62.64
2018-07-08T03:32:21.318Z,62.36
2018-07-08T03:34:52.340Z,62.20
2018-07-08T03:37:23.695Z,62.76
2018-07-08T03:39:54.753Z,62.97
2018-07-08T03:42:25.769Z,63.40
2018-07-08T03:44:56.785Z,62.70
2018-07-08T03:47:27.770Z,62.15
2018-07-08T03:49:58.767Z,62.70
2018-07-08T03:52:30.139Z,62.59
2018-07-08T03:55:01.479Z,62.75
2018-07-08T03:57:32.432Z,61.98
2018-07-08T04:00:03.866Z,62.54
2018-07-08T04:02:34.581Z,62.15
2018-07-08T04:05:05.810Z,62.49
2018-07-08T04:07:36.820Z,63.16
2018-07-08T04:10:08.208Z,61.79
2018-07-08T04:12:39.657Z,62.49
2018-07-08T04:15:10.413Z,62.23
2018-07-08T04:17:41.967Z,63.02
2018-07-08T04:20:13.014Z,64.20
2018-07-08T04:22:44.049Z,63.55
2018-07-08T04:25:15.072Z,63.90
2018-07-08T04:27:46.113Z,64.31
2018-07-08T04:30:17.474Z,64.43
2018-07-08T04:32:48.690Z,63.42
2018-07-08T04:35:19.685Z,63.83
2018-07-08T04:37:50.801Z,63.53
2018-07-08T04:40:21.754Z,64.24
2018-07-08T04:42:52.834Z,64.16
2018-07-08T04:45:23.921Z,64.97
2018-07-08T04:47:54.645Z,64.83
2018-07-08T04:50:25.667Z,64.69
2018-07-08T04:52:57.011Z,65.32
2018-07-08T04:55:27.804Z,65.47
2018-07-08T04:57:58.971Z,65.25
2018-07-08T05:00:30.422Z,65.47
2018-07-08T05:03:01.404Z,65.24
2018-07-08T05:05:32.443Z,65.75
2018-07-08T05:08:03.716Z,66.15
2018-07-08T05:10:34.803Z,66.53
2018-07-08T05:13:05.839Z,65.79
2018-07-08T05:15:37.282Z,65.48
2018-07-08T05:18:08.331Z,65.53
2018-07-08T05:20:39.644Z,65.70
2018-07-08T05:23:10.663Z,64.76
2018-07-08T05:25:42.038Z,65.08
2018-07-08T05:28:13.025Z,65.66
2018-07-08T05:30:44.033Z,65.14
2018-07-08T05:33:15.015Z,64.84
2018-07-08T05:35:46.075Z,66.28
2018-07-08T05:38:17.238Z,65.61
2018-07-08T05:40:48.121Z,65.01
2018-07-08T05:43:19.031Z,65.09
2018-07-08T05:45:49.911Z,65.00
2018-07-08T05:48:21.093Z,65.14
2018-07-08T05:50:52.457Z,65.72
2018-07-08T05:53:23.469Z,65.01
2018-07-08T05:55:54.443Z,64.51
2018-07-08T05:58:25.417Z,64.96
2018-07-08T06:00:56.501Z,64.43
2018-07-08T06:03:27.518Z,64.55
2018-07-08T06:05:58.571Z,63.69
2018-07-08T06:08:29.655Z,64.39
2018-07-08T06:11:00.541Z,64.31
2018-07-08T06:13:31.433Z,64.06
2018-07-08T06:16:02.616Z,63.55
2018-07-08T06:18:33.963Z,63.16
2018-07-08T06:21:05.218Z,62.12
2018-07-08T06:23:35.917Z,62.25
2018-07-08T06:26:07.344Z,61.68
2018-07-08T06:28:38.710Z,61.07
2018-07-08T06:31:09.623Z,60.95
2018-07-08T06:33:40.650Z,61.08
2018-07-08T06:36:11.745Z,60.73
2018-07-08T06:38:42.920Z,60.59
2018-07-08T06:41:14.271Z,59.82
2018-07-08T06:43:45.308Z,59.48
2018-07-08T06:46:16.318Z,59.41
2018-07-08T06:48:47.392Z,59.57
2018-07-08T06:51:18.372Z,57.45
2018-07-08T06:53:49.495Z,57.96
2018-07-08T06:56:20.525Z,56.82
2018-07-08T06:58:52.080Z,56.49
2018-07-08T07:01:23.101Z,57.08
2018-07-08T07:03:54.192Z,55.93
2018-07-08T07:06:24.960Z,55.91
2018-07-08T07:08:56.296Z,56.32
2018-07-08T07:11:27.606Z,55.29
2018-07-08T07:13:58.714Z,54.65
2018-07-08T07:16:29.767Z,54.55
2018-07-08T07:19:00.761Z,54.18
2018-07-08T07:21:31.797Z,53.04
2018-07-08T07:24:02.806Z,53.15
2018-07-08T07:26:34.399Z,51.15
2018-07-08T07:29:05.792Z,51.38
2018-07-08T07:31:36.849Z,51.20
2018-07-08T07:34:08.698Z,50.68
2018-07-08T07:36:39.615Z,51.54
2018-07-08T07:39:10.863Z,51.04
2018-07-08T07:41:41.645Z,49.76
2018-07-08T07:44:13.026Z,49.47
2018-07-08T07:46:44.033Z,48.88
2018-07-08T07:49:15.047Z,46.81
2018-07-08T07:51:46.065Z,47.22
2018-07-08T07:54:17.171Z,46.90
2018-07-08T07:56:48.653Z,46.19
2018-07-08T07:59:19.846Z,45.02
2018-07-08T08:01:51.084Z,45.05
2018-07-08T08:04:22.173Z,43.22
2018-07-08T08:06:53.465Z,43.59
2018-07-08T08:09:24.496Z,42.68
2018-07-08T08:11:55.501Z,41.36
2018-07-08T08:14:26.691Z,41.83
2018-07-08T08:16:57.841Z,40.81
2018-07-08T08:19:28.856Z,40.64
2018-07-08T08:21:59.970Z,39.47
2018-07-08T08:24:31.365Z,39.67
2018-07-08T08:27:02.425Z,39.75
2018-07-08T08:32:03.284Z,36.97
2018-07-08T08:34:54.418Z,37.72
2018-07-08T08:37:28.058Z,38.66
2018-07-08T08:39:58.863Z,39.46
2018-07-08T08:42:29.766Z,39.67
2018-07-08T08:45:01.198Z,40.18
2018-07-08T08:47:34.521Z,39.93
2018-07-08T08:50:07.650Z,38.65
2018-07-08T08:52:38.874Z,38.30
2018-07-08T08:55:10.898Z,37.06
2018-07-08T08:57:42.194Z,37.06
2018-07-08T09:00:15.689Z,35.98
2018-07-08T09:02:47.127Z,36.03
2018-07-08T09:05:18.480Z,36.31
2018-07-08T09:07:49.559Z,37.70
2018-07-08T09:10:20.602Z,37.25
2018-07-08T09:12:51.610Z,37.27
2018-07-08T09:15:22.658Z,37.83
2018-07-08T09:17:53.643Z,38.30
2018-07-08T09:20:25.030Z,37.15
2018-07-08T09:22:56.038Z,37.02
2018-07-08T09:25:27.054Z,37.01
2018-07-08T09:27:58.140Z,37.11
2018-07-08T09:30:29.212Z,37.30
2018-07-08T09:32:59.992Z,36.45
2018-07-08T09:35:31.007Z,35.66
2018-07-08T09:38:02.057Z,36.37
2018-07-08T09:40:33.140Z,36.66
2018-07-08T09:43:05.277Z,37.30
2018-07-08T09:45:36.336Z,36.79
2018-07-08T09:48:07.159Z,35.41
2018-07-08T09:50:38.449Z,35.77
2018-07-08T09:53:12.108Z,34.79
2018-07-08T09:55:43.181Z,36.71
2018-07-08T09:58:14.256Z,36.67
2018-07-08T10:00:45.390Z,37.99
2018-07-08T10:03:18.835Z,37.22
2018-07-08T10:05:50.091Z,36.72
2018-07-08T10:08:21.122Z,37.12
2018-07-08T10:10:52.533Z,36.67
2018-07-08T10:13:24.381Z,33.93
2018-07-08T10:15:55.187Z,34.63
2018-07-08T10:18:26.253Z,34.47
2018-07-08T10:20:57.774Z,35.15
2018-07-08T10:23:28.796Z,34.90
2018-07-08T10:25:59.842Z,34.45
2018-07-08T10:28:30.943Z,33.13
2018-07-08T10:31:02.215Z,31.31
2018-07-08T10:34:06.381Z,33.03
2018-07-08T10:36:37.925Z,34.19
2018-07-08T10:39:11.396Z,35.41
2018-07-08T10:41:42.949Z,35.23
2018-07-08T10:44:14.139Z,33.63
2018-07-08T10:46:45.123Z,33.47
2018-07-08T10:49:16.273Z,32.98
2018-07-08T10:51:47.360Z,33.20
2018-07-08T10:54:18.574Z,34.68
2018-07-08T10:56:49.624Z,34.03
2018-07-08T10:59:20.792Z,33.24
2018-07-08T11:01:51.936Z,33.22
2018-07-08T11:04:23.375Z,32.93
2018-07-08T11:06:54.420Z,33.02
2018-07-08T11:09:25.413Z,32.18
2018-07-08T11:11:56.325Z,31.54
2018-07-08T11:14:27.595Z,32.64
2018-07-08T11:16:58.598Z,32.10
2018-07-08T11:19:29.798Z,31.98
2018-07-08T11:22:00.810Z,32.86
2018-07-08T11:24:31.843Z,33.45
2018-07-08T11:27:02.882Z,30.83
2018-07-08T11:29:33.974Z,30.45
2018-07-08T11:32:05.090Z,31.50
2018-07-08T11:34:35.864Z,30.52
2018-07-08T11:37:06.886Z,30.71
2018-07-08T11:39:37.909Z,30.79
2018-07-08T11:42:09.119Z,29.75
2018-07-08T11:44:40.320Z,30.86
2018-07-08T11:47:14.511Z,31.09
2018-07-08T11:49:45.951Z,30.01
2018-07-08T11:52:17.479Z,30.11
2018-07-08T11:54:48.499Z,31.52
2018-07-08T11:57:19.575Z,29.88
2018-07-08T11:59:50.938Z,28.71
2018-07-08T12:02:22.072Z,28.07
2018-07-08T12:04:53.242Z,28.18
2018-07-08T12:07:24.375Z,28.68
2018-07-08T12:09:55.648Z,28.09
2018-07-08T12:12:27.089Z,28.84
2018-07-08T12:14:58.195Z,29.97
2018-07-08T12:17:29.701Z,30.91
2018-07-08T12:20:00.737Z,29.34
2018-07-08T12:22:32.153Z,29.76
2018-07-08T12:25:03.169Z,29.14
2018-07-08T12:27:34.263Z,28.81
2018-07-08T12:30:05.546Z,27.87
2018-07-08T12:32:36.555Z,28.01
2018-07-08T12:35:07.942Z,30.41
2018-07-08T12:37:39.051Z,29.63
2018-07-08T12:40:10.239Z,30.36
2018-07-08T12:42:41.338Z,30.73
2018-07-08T12:45:12.588Z,30.17
2018-07-08T12:47:43.496Z,29.52
2018-07-08T12:50:14.480Z,29.21
2018-07-08T12:52:45.522Z,29.49
2018-07-08T12:55:16.704Z,30.43
2018-07-08T12:57:48.023Z,29.41
2018-07-08T13:00:19.097Z,30.60
2018-07-08T13:02:50.102Z,30.69
2018-07-08T13:05:21.101Z,31.38
2018-07-08T13:07:52.071Z,30.67
2018-07-08T13:10:23.572Z,30.58
2018-07-08T13:12:54.380Z,30.89
2018-07-08T13:15:25.413Z,32.35
2018-07-08T13:17:56.841Z,32.67
2018-07-08T13:20:28.001Z,33.15
2018-07-08T13:22:59.025Z,31.22
2018-07-08T13:25:30.298Z,30.89
2018-07-08T13:28:01.343Z,30.66
2018-07-08T13:30:32.686Z,31.42
2018-07-08T13:33:03.879Z,32.61
2018-07-08T13:35:35.198Z,33.28
2018-07-08T13:38:06.910Z,33.05
2018-07-08T13:40:38.175Z,33.66
2018-07-08T13:43:09.607Z,34.28
2018-07-08T13:45:40.618Z,33.86
2018-07-08T13:48:11.706Z,33.81
2018-07-08T13:50:42.878Z,34.20
2018-07-08T13:53:14.106Z,34.43
2018-07-08T13:55:45.188Z,34.32
2018-07-08T13:58:16.377Z,34.43
2018-07-08T14:00:47.593Z,35.41
2018-07-08T14:03:18.773Z,35.39
2018-07-08T14:05:49.748Z,35.37
2018-07-08T14:08:20.834Z,35.13
2018-07-08T14:10:52.212Z,36.09
2018-07-08T14:13:23.287Z,35.27
2018-07-08T14:15:54.299Z,36.01
2018-07-08T14:18:25.367Z,36.19
2018-07-08T14:20:57.563Z,36.65
2018-07-08T14:23:28.802Z,35.53
2018-07-08T14:25:59.840Z,34.07
2018-07-08T14:28:30.719Z,34.07
2018-07-08T14:31:01.616Z,34.71
2018-07-08T14:33:32.892Z,34.57
2018-07-08T14:36:03.916Z,34.67
2018-07-08T14:38:35.293Z,34.70
2018-07-08T14:41:06.465Z,35.92
2018-07-08T14:43:37.518Z,35.63
2018-07-08T14:46:08.592Z,35.79
2018-07-08T14:48:40.164Z,35.72
2018-07-08T14:51:11.269Z,36.32
2018-07-08T14:53:42.624Z,36.26
2018-07-08T14:56:13.651Z,36.63
2018-07-08T14:58:44.675Z,36.25
2018-07-08T15:01:15.684Z,35.76
2018-07-08T15:03:46.908Z,36.84
2018-07-08T15:06:17.959Z,36.92
2018-07-08T15:08:48.951Z,36.67
2018-07-08T15:11:19.972Z,37.37
2018-07-08T15:13:51.022Z,35.69
2018-07-08T15:16:22.108Z,37.26
2018-07-08T15:18:53.242Z,36.53
2018-07-08T15:21:24.295Z,36.89
2018-07-08T15:23:55.337Z,37.36
2018-07-08T15:26:26.173Z,37.04
2018-07-08T15:28:57.582Z,37.03
2018-07-08T15:31:28.384Z,35.87
2018-07-08T15:33:59.737Z,35.76
2018-07-08T15:36:31.131Z,35.97
2018-07-08T15:39:02.210Z,35.47
2018-07-08T15:41:33.952Z,35.84
2018-07-08T15:44:05.155Z,35.65
2018-07-08T15:46:35.900Z,36.12
2018-07-08T15:49:06.959Z,35.64
2018-07-08T15:51:38.310Z,36.57
2018-07-08T15:54:09.417Z,36.14
2018-07-08T15:56:40.714Z,36.55
2018-07-08T15:59:11.772Z,35.90
2018-07-08T16:01:42.836Z,35.89
2018-07-08T16:04:14.101Z,36.17
2018-07-08T16:06:44.912Z,36.17
2018-07-08T16:09:16.607Z,35.96
2018-07-08T16:11:47.635Z,36.17
2018-07-08T16:14:19.303Z,35.94
2018-07-08T16:16:50.731Z,35.53
2018-07-08T16:19:21.756Z,35.15
2018-07-08T16:21:52.828Z,35.16
2018-07-08T16:24:23.627Z,35.74
2018-07-08T16:26:54.648Z,36.23
2018-07-08T16:29:26.103Z,36.89
2018-07-08T16:31:57.143Z,36.60
2018-07-08T16:34:28.322Z,37.53
2018-07-08T16:36:59.366Z,35.96
2018-07-08T16:39:30.374Z,36.14
2018-07-08T16:42:01.379Z,36.89
2018-07-08T16:44:32.424Z,36.40
2018-07-08T16:47:03.522Z,36.96
2018-07-08T16:49:34.509Z,36.36
2018-07-08T16:52:05.538Z,36.46
2018-07-08T16:54:36.892Z,37.04
2018-07-08T16:57:07.872Z,36.55
2018-07-08T16:59:42.829Z,36.69
2018-07-08T17:02:14.401Z,36.08
2018-07-08T17:04:45.544Z,36.35
2018-07-08T17:07:16.697Z,35.97
2018-07-08T17:09:47.967Z,37.11
2018-07-08T17:12:18.967Z,37.00
2018-07-08T17:14:49.993Z,36.59
2018-07-08T17:17:21.031Z,36.82
2018-07-08T17:19:51.795Z,37.02
2018-07-08T17:22:23.286Z,36.34
2018-07-08T17:24:54.078Z,36.93
2018-07-08T17:27:25.671Z,36.06
2018-07-08T17:29:57.072Z,35.99
2018-07-08T17:32:28.888Z,37.36
2018-07-08T17:35:01.854Z,37.48
2018-07-08T17:37:32.926Z,37.37
2018-07-08T17:40:04.043Z,37.81
2018-07-08T17:42:35.126Z,37.66
2018-07-08T17:45:06.970Z,37.59
2018-07-08T17:47:38.136Z,38.09
2018-07-08T17:50:09.965Z,37.92
2018-07-08T17:52:40.758Z,38.71
2018-07-08T17:55:11.710Z,38.38
2018-07-08T17:57:43.047Z,37.69
2018-07-08T18:00:15.148Z,37.04
2018-07-08T18:02:46.151Z,37.99
2018-07-08T18:05:17.145Z,38.15
2018-07-08T18:07:48.595Z,37.64
2018-07-08T18:10:19.569Z,38.66
2018-07-08T18:12:50.713Z,39.05
2018-07-08T18:15:21.702Z,38.59
2018-07-08T18:17:52.796Z,38.63
2018-07-08T18:20:23.663Z,38.47
2018-07-08T18:22:55.118Z,38.27
2018-07-08T18:25:26.116Z,38.33
2018-07-08T18:27:57.159Z,38.81
2018-07-08T18:30:28.221Z,38.31
2018-07-08T18:32:59.266Z,39.20
2018-07-08T18:35:30.026Z,38.22
2018-07-08T18:38:01.770Z,39.21
2018-07-08T18:40:33.300Z,39.15
2018-07-08T18:43:04.701Z,39.13
2018-07-08T18:45:35.700Z,39.76
2018-07-08T18:48:06.821Z,39.51
2018-07-08T18:50:38.582Z,39.95
2018-07-08T18:53:10.147Z,39.63
2018-07-08T18:55:41.194Z,39.58
2018-07-08T18:58:12.339Z,39.20
2018-07-08T19:00:44.194Z,39.14
2018-07-08T19:03:15.520Z,39.71
2018-07-08T19:05:46.688Z,39.35
2018-07-08T19:08:18.028Z,40.06
2018-07-08T19:10:49.174Z,39.67
2018-07-08T19:13:20.662Z,40.01
2018-07-08T19:15:52.480Z,40.51
2018-07-08T19:18:23.572Z,39.69
2018-07-08T19:20:55.218Z,39.76
2018-07-08T19:23:26.411Z,39.84
2018-07-08T19:25:57.646Z,40.72
2018-07-08T19:28:29.176Z,40.12
2018-07-08T19:31:00.633Z,40.68
2018-07-08T19:33:31.771Z,40.44
2018-07-08T19:36:04.012Z,40.46
2018-07-08T19:38:35.354Z,41.43
2018-07-08T19:41:06.921Z,41.42
2018-07-08T19:43:39.033Z,41.43
2018-07-08T19:46:10.442Z,41.55
2018-07-08T19:48:41.929Z,41.43
2018-07-08T19:51:13.519Z,40.76
2018-07-08T19:53:44.990Z,41.19
2018-07-08T19:56:16.056Z,41.85
2018-07-08T19:58:47.765Z,42.02
2018-07-08T20:01:18.829Z,41.33
2018-07-08T20:03:50.020Z,42.02
2018-07-08T20:06:20.807Z,41.49
2018-07-08T20:08:52.646Z,42.44
2018-07-08T20:11:24.368Z,41.97
2018-07-08T20:13:55.394Z,42.64
2018-07-08T20:16:27.081Z,43.16
2018-07-08T20:18:58.539Z,42.08
2018-07-08T20:21:29.695Z,42.95
2018-07-08T20:24:00.858Z,42.60
2018-07-08T20:26:31.890Z,42.85
2018-07-08T20:29:03.395Z,43.79
2018-07-08T20:31:34.427Z,43.96
2018-07-08T20:34:05.788Z,43.12
2018-07-08T20:36:36.982Z,43.24
2018-07-08T20:39:09.196Z,44.17
2018-07-08T20:41:40.411Z,44.30
2018-07-08T20:44:11.152Z,43.60
2018-07-08T20:46:42.608Z,43.96
2018-07-08T20:49:14.855Z,43.93
2018-07-08T20:51:46.010Z,44.65
2018-07-08T20:54:16.856Z,44.21
2018-07-08T20:56:48.621Z,43.94
2018-07-08T20:59:20.063Z,44.33
2018-07-08T21:01:51.146Z,45.40
2018-07-08T21:04:22.984Z,44.87
2018-07-08T21:06:54.389Z,46.07
2018-07-08T21:09:25.761Z,45.88
2018-07-08T21:11:56.776Z,45.92
2018-07-08T21:14:28.184Z,45.34
2018-07-08T21:16:59.212Z,45.79
2018-07-08T21:19:30.455Z,46.40
2018-07-08T21:22:01.482Z,46.00
2018-07-08T21:24:32.679Z,46.87
2018-07-08T21:27:03.866Z,46.48
2018-07-08T21:29:34.993Z,46.66
2018-07-08T21:32:05.729Z,47.08
2018-07-08T21:34:36.701Z,48.50
2018-07-08T21:37:08.068Z,47.73
2018-07-08T21:39:39.095Z,47.63
2018-07-08T21:42:10.184Z,48.70
2018-07-08T21:44:43.316Z,47.78
2018-07-08T21:47:14.421Z,48.30
2018-07-08T21:49:45.534Z,48.71
2018-07-08T21:52:16.919Z,48.37
2018-07-08T21:54:48.343Z,47.63
2018-07-08T21:57:19.489Z,49.82
2018-07-08T21:59:50.730Z,49.37
2018-07-08T22:02:22.753Z,48.97
2018-07-08T22:04:53.479Z,50.09
2018-07-08T22:07:28.665Z,49.79
2018-07-08T22:09:59.690Z,49.03
2018-07-08T22:12:31.032Z,49.92
2018-07-08T22:15:02.028Z,50.28
2018-07-08T22:17:33.362Z,49.56
2018-07-08T22:20:04.725Z,49.70
2018-07-08T22:22:35.820Z,49.95
2018-07-08T22:25:06.607Z,50.66
2018-07-08T22:27:37.230Z,49.85
2018-07-08T22:30:08.740Z,50.34
2018-07-08T22:32:39.832Z,50.75
2018-07-08T22:35:10.852Z,50.62
2018-07-08T22:37:41.888Z,51.07
2018-07-08T22:40:12.897Z,50.53
2018-07-08T22:42:44.317Z,51.36
2018-07-08T22:45:15.724Z,50.71
2018-07-08T22:47:46.930Z,50.28
2018-07-08T22:50:18.012Z,51.45
2018-07-08T22:52:49.000Z,50.88
2018-07-08T22:55:20.405Z,51.07
2018-07-08T22:57:51.498Z,50.90
2018-07-08T23:00:39.687Z,51.28
2018-07-08T23:03:50.085Z,51.03
2018-07-08T23:06:21.196Z,51.55
2018-07-08T23:08:52.807Z,50.96
2018-07-08T23:11:24.589Z,51.10
2018-07-08T23:13:56.771Z,51.60
2018-07-08T23:16:28.072Z,51.23
2018-07-08T23:18:59.220Z,50.79
2018-07-08T23:21:30.611Z,51.00
2018-07-08T23:24:01.453Z,52.43
2018-07-08T23:26:32.663Z,51.23
2018-07-08T23:29:03.403Z,52.45
2018-07-08T23:31:34.720Z,52.15
2018-07-08T23:34:05.770Z,52.75
2018-07-08T23:36:36.820Z,52.81
2018-07-08T23:39:07.802Z,52.51
2018-07-08T23:41:39.209Z,53.01
2018-07-08T23:44:10.412Z,53.25
2018-07-08T23:46:41.476Z,53.22
2018-07-08T23:49:12.625Z,52.16
2018-07-08T23:51:43.501Z,52.06
2018-07-08T23:54:14.553Z,52.12
2018-07-08T23:56:45.961Z,51.89
2018-07-08T23:59:16.757Z,51.47
